Terminal Aerodrome Forecast
Issued by NWS Cleveland, OH

Home | Current Version | Previous Version | Text Only | Print | Product List | Glossary Off
Versions: 1 2 3 4 5 6 7 8 9 10 11 12 13 14 15 16 17 18 19 20 21 22 23

000
FTUS41 KCLE 300500 RRA
TAFCAK
TAF
KCAK 300541Z 3006/3106 30010KT 4SM -SHSN SCT008 OVC015
      TEMPO 3006/3008 1 1/2SM -SHSN OVC008
     FM300900 30012G20KT 5SM -SHSN SCT006 OVC012
      TEMPO 3009/3012 2SM -SHSN OVC006
     FM301500 33014G22KT P6SM -SHSN SCT015 OVC025
     FM301900 32010KT P6SM SCT025 BKN035
     FM310400 29005KT P6SM SCT035 BKN150=

USA.gov is the U.S. government's official web portal to all federal, state and local government web resources and services.